Time;durP1;ratioP1;P1;durP2;ratioP2;P2;SDS_P1;SDS_P2;PMS_P1;PMS_P2;Temp;Humidity;BMP_temperature;BMP_pressure;BME280_temperature;BME280_humidity;BME280_pressure;Samples;Min_cycle;Max_cycle;Signal;HPM_P1;HPM_P2
2022/04/13 00:00:16;;;;;;;9.73;6.60;;;14.70;99.90;;;;;;5096699;27;20084;-71
2022/04/13 00:02:42;;;;;;;12.43;6.90;;;14.70;99.90;;;;;;5103346;28;20169;-70
2022/04/13 00:05:09;;;;;;;9.23;5.97;;;14.70;99.90;;;;;;5117765;27;20091;-70
2022/04/13 00:07:35;;;;;;;11.13;6.43;;;14.70;99.90;;;;;;5112191;27;20050;-71
2022/04/13 00:10:02;;;;;;;10.07;5.80;;;14.60;99.90;;;;;;5129184;27;20054;-70
2022/04/13 00:12:27;;;;;;;10.35;6.47;;;14.60;99.90;;;;;;5128702;27;20038;-70
2022/04/13 00:14:53;;;;;;;8.90;6.65;;;14.60;99.90;;;;;;5089041;28;20051;-71
2022/04/13 00:17:19;;;;;;;7.93;5.88;;;14.60;99.90;;;;;;5121768;27;20111;-71
2022/04/13 00:19:44;;;;;;;10.68;6.63;;;14.60;99.90;;;;;;5121562;27;20043;-71
2022/04/13 00:22:10;;;;;;;9.85;6.03;;;14.60;99.90;;;;;;5113241;27;20041;-71
2022/04/13 00:24:36;;;;;;;8.82;5.90;;;14.60;99.90;;;;;;5102788;28;20039;-71
2022/04/13 00:27:01;;;;;;;9.15;5.53;;;14.60;99.90;;;;;;5108390;28;20039;-70
2022/04/13 00:29:30;;;;;;;9.70;6.30;;;14.60;99.90;;;;;;5106524;27;20089;-71
2022/04/13 00:31:58;;;;;;;14.05;6.72;;;14.70;99.90;;;;;;5114041;27;20051;-72
2022/04/13 00:34:24;;;;;;;8.02;5.75;;;14.60;99.90;;;;;;5106157;27;20042;-72
2022/04/13 00:36:49;;;;;;;8.80;6.00;;;14.60;99.90;;;;;;5084685;28;20052;-70
2022/04/13 00:39:15;;;;;;;10.55;5.82;;;14.60;99.90;;;;;;5115859;27;20430;-70
2022/04/13 00:41:40;;;;;;;10.82;6.00;;;14.50;99.90;;;;;;5129190;27;20054;-71
2022/04/13 00:44:09;;;;;;;9.73;6.05;;;14.50;99.90;;;;;;5112783;27;20035;-71
2022/04/13 00:46:35;;;;;;;12.13;6.60;;;14.50;99.90;;;;;;5106988;28;20492;-71
2022/04/13 00:49:03;;;;;;;10.18;6.35;;;14.50;99.90;;;;;;5110245;27;20364;-71
2022/04/13 00:51:28;;;;;;;11.93;6.03;;;14.50;99.90;;;;;;5090754;28;20115;-72
2022/04/13 00:53:57;;;;;;;8.68;6.18;;;14.60;99.90;;;;;;5109778;27;20136;-71
2022/04/13 00:56:24;;;;;;;11.48;6.72;;;14.50;99.90;;;;;;5116987;27;20399;-72
2022/04/13 00:58:53;;;;;;;9.43;6.68;;;14.50;99.90;;;;;;5080704;28;20043;-71
2022/04/13 01:01:20;;;;;;;10.02;6.57;;;14.60;99.90;;;;;;5091930;28;20492;-71
2022/04/13 01:03:50;;;;;;;12.00;7.00;;;14.70;99.90;;;;;;5099609;28;20359;-71
2022/04/13 01:06:16;;;;;;;13.38;6.93;;;14.70;99.90;;;;;;5129430;27;20475;-71
2022/04/13 01:08:43;;;;;;;11.70;7.43;;;14.70;99.90;;;;;;5113670;27;20043;-71
2022/04/13 01:11:09;;;;;;;11.07;7.00;;;14.80;99.90;;;;;;5089530;28;20118;-71
2022/04/13 01:13:38;;;;;;;10.77;7.43;;;14.80;99.90;;;;;;5100758;28;20547;-71
2022/04/13 01:16:08;;;;;;;11.65;7.75;;;14.80;99.90;;;;;;5098369;28;20554;-71
2022/04/13 01:18:34;;;;;;;11.50;7.07;;;14.80;99.90;;;;;;5100281;28;20115;-71
2022/04/13 01:21:00;;;;;;;11.57;7.22;;;15.00;99.90;;;;;;5128682;28;20458;-71
2022/04/13 01:23:27;;;;;;;10.77;7.43;;;14.80;99.90;;;;;;5122530;27;20040;-71
2022/04/13 01:25:55;;;;;;;11.40;7.68;;;14.90;99.90;;;;;;5087013;27;20475;-71
2022/04/13 01:28:22;;;;;;;11.60;7.28;;;14.90;99.90;;;;;;5124258;27;20042;-71
2022/04/13 01:30:48;;;;;;;13.77;7.28;;;14.80;99.90;;;;;;5112493;27;20169;-71
2022/04/13 01:33:13;;;;;;;13.73;7.90;;;14.90;99.90;;;;;;5126601;27;20102;-71
2022/04/13 01:35:40;;;;;;;11.95;7.97;;;14.90;99.90;;;;;;5096895;27;20039;-71
2022/04/13 01:38:06;;;;;;;13.18;7.78;;;14.90;99.90;;;;;;5106283;28;20043;-71
2022/04/13 01:40:31;;;;;;;11.88;7.70;;;14.80;99.90;;;;;;5111515;28;20054;-71
2022/04/13 01:42:57;;;;;;;14.52;7.75;;;14.80;99.90;;;;;;5113565;27;20051;-71
2022/04/13 01:45:23;;;;;;;12.50;7.70;;;14.90;99.90;;;;;;5121697;27;20203;-71
2022/04/13 01:47:49;;;;;;;11.32;7.93;;;14.80;99.90;;;;;;5112489;28;20028;-71
2022/04/13 01:50:16;;;;;;;10.23;7.40;;;14.80;99.90;;;;;;5098331;27;20185;-71
2022/04/13 01:52:46;;;;;;;14.55;7.63;;;14.80;99.90;;;;;;5132032;27;20031;-71
2022/04/13 01:55:12;;;;;;;15.15;7.90;;;14.70;99.90;;;;;;5132519;27;20058;-71
2022/04/13 01:57:40;;;;;;;13.73;8.10;;;14.70;99.90;;;;;;5131411;27;20050;-72
2022/04/13 02:00:08;;;;;;;11.80;7.63;;;14.70;99.90;;;;;;5130899;27;20051;-71
2022/04/13 02:02:34;;;;;;;14.50;8.60;;;14.60;99.90;;;;;;5112798;27;20491;-71
2022/04/13 02:05:00;;;;;;;12.30;8.40;;;14.60;99.90;;;;;;5112303;27;20039;-71
2022/04/13 02:07:27;;;;;;;13.43;8.35;;;14.50;99.90;;;;;;5133512;27;20495;-71
2022/04/13 02:09:54;;;;;;;17.35;8.75;;;14.50;99.90;;;;;;5132203;27;20070;-71
2022/04/13 02:12:20;;;;;;;15.80;8.85;;;14.50;99.90;;;;;;5132337;27;20035;-71
2022/04/13 02:14:45;;;;;;;13.32;8.45;;;14.50;99.90;;;;;;5130510;27;20528;-71
2022/04/13 02:17:14;;;;;;;14.13;8.95;;;14.40;99.90;;;;;;5113730;27;20500;-71
2022/04/13 02:19:41;;;;;;;16.48;9.00;;;14.40;99.90;;;;;;5111376;27;20389;-71
2022/04/13 02:22:07;;;;;;;14.18;8.82;;;14.60;99.90;;;;;;5092369;28;20133;-71
2022/04/13 02:24:34;;;;;;;16.38;9.35;;;14.40;99.90;;;;;;5113037;28;20100;-71
2022/04/13 02:27:01;;;;;;;13.80;9.77;;;14.40;99.90;;;;;;5112408;28;20051;-71
2022/04/13 02:29:26;;;;;;;16.60;8.98;;;14.30;99.90;;;;;;5092173;28;20365;-71
2022/04/13 02:31:52;;;;;;;16.77;9.45;;;14.40;99.90;;;;;;5110829;28;20058;-71
2022/04/13 02:34:18;;;;;;;14.20;9.07;;;14.30;99.90;;;;;;5110544;28;20090;-71
2022/04/13 02:36:44;;;;;;;17.95;9.65;;;14.30;99.90;;;;;;5111140;28;20118;-71
2022/04/13 02:39:09;;;;;;;17.48;9.63;;;14.60;99.90;;;;;;5122735;27;20084;-71
2022/04/13 02:41:35;;;;;;;16.35;9.68;;;14.30;99.90;;;;;;5131599;27;20036;-71
2022/04/13 02:44:01;;;;;;;17.63;10.07;;;14.90;99.90;;;;;;5110690;27;20372;-71
2022/04/13 02:46:26;;;;;;;15.75;9.98;;;14.20;99.90;;;;;;5112931;27;20398;-71
2022/04/13 02:48:52;;;;;;;15.32;10.15;;;14.20;99.90;;;;;;5113010;27;20122;-71
2022/04/13 02:51:18;;;;;;;12.93;9.98;;;14.20;99.90;;;;;;5113296;27;20035;-71
2022/04/13 02:53:44;;;;;;;15.73;10.55;;;14.30;99.90;;;;;;5126218;27;20051;-71
2022/04/13 02:56:09;;;;;;;16.30;11.63;;;14.20;99.90;;;;;;5116903;27;20044;-71
2022/04/13 02:58:35;;;;;;;17.48;10.55;;;14.90;99.90;;;;;;5110013;27;20036;-71
2022/04/13 03:01:03;;;;;;;15.93;10.80;;;14.10;99.90;;;;;;5129300;27;20122;-72
2022/04/13 03:03:30;;;;;;;16.08;10.98;;;14.20;99.90;;;;;;5125704;27;20150;-74
2022/04/13 03:05:56;;;;;;;15.68;10.63;;;14.20;99.90;;;;;;5110011;27;20059;-72
2022/04/13 03:08:21;;;;;;;18.30;11.10;;;14.10;99.90;;;;;;5125154;27;20062;-72
2022/04/13 03:10:47;;;;;;;20.33;11.40;;;14.10;99.90;;;;;;5105859;28;20071;-71
2022/04/13 03:13:12;;;;;;;17.80;11.20;;;14.00;99.90;;;;;;5121545;27;20039;-72
2022/04/13 03:15:38;;;;;;;20.67;11.27;;;14.00;99.90;;;;;;5115856;27;20097;-72
2022/04/13 03:18:05;;;;;;;16.63;10.85;;;14.00;99.90;;;;;;5124404;27;20043;-72
2022/04/13 03:20:31;;;;;;;18.88;10.52;;;14.00;99.90;;;;;;5098570;28;20055;-72
2022/04/13 03:22:57;;;;;;;16.13;11.05;;;13.90;99.90;;;;;;5127056;27;20043;-71
2022/04/13 03:25:23;;;;;;;18.20;12.23;;;13.90;99.90;;;;;;5117177;27;20138;-72
2022/04/13 03:27:48;;;;;;;19.50;11.48;;;13.90;99.90;;;;;;5103037;28;20060;-71
2022/04/13 03:30:16;;;;;;;17.23;11.45;;;13.80;99.90;;;;;;5108470;27;20050;-72
2022/04/13 03:32:43;;;;;;;17.23;11.77;;;14.00;99.90;;;;;;5124364;27;20429;-71
2022/04/13 03:35:10;;;;;;;18.50;11.63;;;13.80;99.90;;;;;;5093296;28;20047;-72
2022/04/13 03:37:36;;;;;;;19.75;11.32;;;13.80;99.90;;;;;;5120161;27;20372;-72
2022/04/13 03:40:03;;;;;;;19.88;12.43;;;13.80;99.90;;;;;;5118090;27;20044;-72
2022/04/13 03:42:34;;;;;;;19.50;12.30;;;13.80;99.90;;;;;;5110895;27;20512;-71
2022/04/13 03:45:04;;;;;;;19.38;12.65;;;13.70;99.90;;;;;;5102930;28;20122;-72
2022/04/13 03:47:30;;;;;;;20.10;12.40;;;13.70;99.90;;;;;;5124658;27;20039;-71
2022/04/13 03:49:56;;;;;;;19.60;12.23;;;13.60;99.90;;;;;;5129683;27;20031;-72
2022/04/13 03:52:22;;;;;;;17.55;12.70;;;13.70;99.90;;;;;;5094172;27;20078;-71
2022/04/13 03:54:47;;;;;;;19.25;12.90;;;13.60;99.90;;;;;;5123280;27;20052;-71
2022/04/13 03:57:13;;;;;;;19.10;13.35;;;13.60;99.90;;;;;;5110192;27;20510;-72
2022/04/13 03:59:39;;;;;;;20.25;13.60;;;13.60;99.90;;;;;;5128268;27;20399;-71
2022/04/13 04:02:05;;;;;;;23.08;13.32;;;13.60;99.90;;;;;;5101328;28;20464;-72
2022/04/13 04:04:30;;;;;;;21.58;13.18;;;13.60;99.90;;;;;;5109284;28;20055;-72
2022/04/13 04:06:56;;;;;;;22.25;13.75;;;13.50;99.90;;;;;;5091700;28;20040;-71
2022/04/13 04:09:21;;;;;;;21.23;13.02;;;14.00;99.90;;;;;;5110618;27;20488;-72
2022/04/13 04:11:47;;;;;;;22.80;13.23;;;13.50;99.90;;;;;;5126389;27;20114;-72
2022/04/13 04:14:13;;;;;;;23.05;13.77;;;13.60;99.90;;;;;;5110705;27;20456;-71
2022/04/13 04:16:38;;;;;;;22.90;13.45;;;13.60;99.90;;;;;;5108910;28;20052;-72
2022/04/13 04:19:04;;;;;;;21.88;13.30;;;13.50;99.90;;;;;;5121909;27;20043;-71
2022/04/13 04:21:29;;;;;;;20.80;13.60;;;13.50;99.90;;;;;;5087852;28;20492;-72
2022/04/13 04:23:55;;;;;;;20.88;13.73;;;13.50;99.90;;;;;;5104019;28;20040;-72
2022/04/13 04:26:21;;;;;;;23.15;13.30;;;13.50;99.90;;;;;;5107524;27;20165;-72
2022/04/13 04:28:46;;;;;;;21.65;13.15;;;13.80;99.90;;;;;;5097286;28;20048;-71
2022/04/13 04:31:12;;;;;;;21.85;13.52;;;13.50;99.90;;;;;;5090344;28;20062;-71
2022/04/13 04:33:37;;;;;;;20.40;12.68;;;13.40;99.90;;;;;;5110688;27;20043;-71
2022/04/13 04:36:03;;;;;;;21.52;12.95;;;13.40;99.90;;;;;;5108463;27;20492;-72
2022/04/13 04:38:32;;;;;;;22.08;13.90;;;13.40;99.90;;;;;;5109250;28;20042;-71
2022/04/13 04:40:58;;;;;;;20.90;13.82;;;13.30;99.90;;;;;;5119772;27;20121;-71
2022/04/13 04:43:24;;;;;;;24.52;13.52;;;13.40;99.90;;;;;;5129237;27;20124;-71
2022/04/13 04:45:49;;;;;;;22.35;13.00;;;13.50;99.90;;;;;;5107616;27;20190;-71
2022/04/13 04:48:15;;;;;;;18.83;13.25;;;13.50;99.90;;;;;;5111297;27;20368;-71
2022/04/13 04:50:40;;;;;;;21.02;12.63;;;13.40;99.90;;;;;;5112133;27;20036;-71
2022/04/13 04:53:06;;;;;;;21.33;13.27;;;13.50;99.90;;;;;;5101328;28;20052;-72
2022/04/13 04:55:32;;;;;;;23.25;13.07;;;13.40;99.90;;;;;;5099898;28;20044;-71
2022/04/13 04:57:58;;;;;;;21.23;13.05;;;13.30;99.90;;;;;;5108363;28;20407;-71
2022/04/13 05:00:24;;;;;;;22.60;13.80;;;13.40;99.90;;;;;;5107786;28;20054;-72
2022/04/13 05:02:50;;;;;;;19.83;12.85;;;13.40;99.90;;;;;;5123686;27;20043;-71
2022/04/13 05:05:16;;;;;;;21.40;13.25;;;13.40;99.90;;;;;;5107788;28;20046;-71
2022/04/13 05:07:42;;;;;;;20.38;13.38;;;13.40;99.90;;;;;;5108788;28;20050;-71
2022/04/13 05:10:09;;;;;;;20.40;12.90;;;13.40;99.90;;;;;;5109581;28;20075;-71
2022/04/13 05:12:43;;;;;;;22.85;12.65;;;13.70;99.90;;;;;;5109993;28;20051;-71
2022/04/13 05:15:10;;;;;;;23.13;13.70;;;13.40;99.90;;;;;;5127752;28;20403;-71
2022/04/13 05:17:37;;;;;;;26.98;12.85;;;13.40;99.90;;;;;;5098708;28;20487;-71
2022/04/13 05:20:04;;;;;;;26.10;13.02;;;13.60;99.90;;;;;;5126966;27;20046;-71
2022/04/13 05:22:30;;;;;;;23.23;13.63;;;13.50;99.90;;;;;;5120859;28;20127;-72
2022/04/13 05:25:02;;;;;;;24.05;13.65;;;13.50;99.90;;;;;;5100347;28;20154;-71
2022/04/13 05:27:28;;;;;;;23.65;13.20;;;13.60;99.90;;;;;;5108350;28;20048;-71
2022/04/13 05:29:53;;;;;;;27.30;13.35;;;13.60;99.90;;;;;;5106918;28;20055;-71
2022/04/13 05:32:19;;;;;;;22.83;13.43;;;13.60;99.90;;;;;;5108040;28;20063;-71
2022/04/13 05:34:44;;;;;;;26.77;13.63;;;13.70;99.90;;;;;;5101599;28;20050;-72
2022/04/13 05:37:10;;;;;;;24.33;13.52;;;13.60;99.90;;;;;;5107996;28;20488;-71
2022/04/13 05:39:38;;;;;;;24.88;13.10;;;13.70;99.90;;;;;;5107691;28;20043;-70
2022/04/13 05:42:04;;;;;;;27.00;13.60;;;13.60;99.90;;;;;;5107307;28;20389;-71
2022/04/13 05:44:29;;;;;;;22.45;13.27;;;13.60;99.90;;;;;;5110335;28;20087;-71
2022/04/13 05:46:55;;;;;;;25.02;14.40;;;14.40;99.90;;;;;;5107961;28;20048;-71
2022/04/13 05:49:20;;;;;;;24.88;14.15;;;13.60;99.90;;;;;;5107773;28;20043;-71
2022/04/13 05:51:46;;;;;;;24.83;13.75;;;13.60;99.90;;;;;;5106534;28;20058;-71
2022/04/13 05:54:12;;;;;;;25.13;14.05;;;13.60;99.90;;;;;;5091904;28;20051;-71
2022/04/13 05:56:37;;;;;;;22.35;13.70;;;13.60;99.90;;;;;;5086324;28;20059;-71
2022/04/13 05:59:03;;;;;;;26.13;14.55;;;13.60;99.90;;;;;;5086564;28;20472;-71
2022/04/13 06:01:28;;;;;;;25.27;14.48;;;13.60;99.90;;;;;;5087145;28;20135;-70
2022/04/13 06:03:54;;;;;;;22.13;14.45;;;13.50;99.90;;;;;;5083311;28;20126;-71
2022/04/13 06:06:21;;;;;;;22.45;13.88;;;13.60;99.90;;;;;;5107891;28;20164;-71
2022/04/13 06:08:47;;;;;;;22.55;14.25;;;13.70;99.90;;;;;;5111191;28;20138;-70
2022/04/13 06:11:12;;;;;;;22.10;14.30;;;14.60;99.90;;;;;;5097608;28;20118;-72
2022/04/13 06:13:38;;;;;;;24.50;14.95;;;13.80;99.90;;;;;;5092402;28;20044;-71
2022/04/13 06:16:04;;;;;;;23.42;14.50;;;14.30;99.90;;;;;;5109900;28;20044;-72
2022/04/13 06:18:30;;;;;;;25.63;15.40;;;14.00;99.90;;;;;;5111675;28;20044;-72
2022/04/13 06:20:55;;;;;;;22.85;14.52;;;14.00;99.90;;;;;;5097589;28;20126;-72
2022/04/13 06:23:21;;;;;;;24.73;13.88;;;14.80;99.90;;;;;;5110990;28;20048;-72
2022/04/13 06:25:46;;;;;;;23.77;13.63;;;14.10;99.90;;;;;;5096631;28;20450;-72
2022/04/13 06:28:12;;;;;;;27.77;14.60;;;14.10;99.90;;;;;;5110495;28;20116;-71
2022/04/13 06:30:37;;;;;;;25.05;14.00;;;14.10;99.90;;;;;;5109623;28;20040;-71
2022/04/13 06:33:03;;;;;;;22.83;14.70;;;14.10;99.90;;;;;;5110815;28;20365;-71
2022/04/13 06:35:29;;;;;;;24.92;14.88;;;14.30;99.90;;;;;;5074671;28;20040;-70
2022/04/13 06:37:54;;;;;;;25.30;14.77;;;14.20;99.90;;;;;;5092096;28;20059;-71
2022/04/13 06:40:20;;;;;;;22.30;14.35;;;14.20;99.90;;;;;;5091818;28;20065;-71
2022/04/13 06:42:45;;;;;;;21.08;14.57;;;14.30;99.90;;;;;;5082543;28;20051;-71
2022/04/13 06:45:13;;;;;;;23.98;15.27;;;14.30;99.90;;;;;;5092576;28;20127;-71
2022/04/13 06:47:39;;;;;;;23.88;14.43;;;14.70;99.90;;;;;;5092547;28;20089;-71
2022/04/13 06:50:06;;;;;;;22.70;14.88;;;14.40;99.90;;;;;;5074373;28;20113;-71
2022/04/13 06:52:37;;;;;;;23.50;14.13;;;14.50;99.90;;;;;;5070788;27;20095;-71
2022/04/13 06:55:04;;;;;;;25.50;15.13;;;14.60;99.90;;;;;;5111878;27;20139;-71
2022/04/13 06:57:33;;;;;;;25.63;15.02;;;14.80;99.90;;;;;;5129786;27;20042;-71
2022/04/13 06:59:59;;;;;;;23.60;14.13;;;14.90;99.90;;;;;;5119686;27;20047;-71
2022/04/13 07:02:27;;;;;;;21.67;13.70;;;15.10;99.90;;;;;;5110186;28;20368;-71
2022/04/13 07:04:53;;;;;;;21.80;13.27;;;15.10;99.90;;;;;;5124591;27;20573;-71
2022/04/13 07:07:19;;;;;;;20.13;13.73;;;15.10;99.90;;;;;;5131195;27;20082;-73
2022/04/13 07:09:45;;;;;;;25.45;14.32;;;15.10;99.90;;;;;;5130975;27;20043;-71
2022/04/13 07:12:10;;;;;;;22.85;13.68;;;15.20;99.90;;;;;;5129343;27;20047;-72
2022/04/13 07:14:36;;;;;;;20.27;13.60;;;15.30;99.90;;;;;;5108630;28;20088;-71
2022/04/13 07:17:02;;;;;;;23.35;13.75;;;15.30;99.90;;;;;;5109006;28;20494;-71
2022/04/13 07:19:27;;;;;;;21.90;13.10;;;15.40;99.90;;;;;;5091178;28;20075;-71
2022/04/13 07:21:53;;;;;;;22.70;13.30;;;15.50;99.90;;;;;;5108610;28;20039;-71
2022/04/13 07:24:19;;;;;;;22.75;14.45;;;15.50;99.90;;;;;;5112697;28;20038;-71
2022/04/13 07:26:44;;;;;;;19.48;13.48;;;16.50;99.90;;;;;;5111778;28;20040;-71
2022/04/13 07:29:10;;;;;;;22.85;14.35;;;15.70;99.90;;;;;;5108946;28;20063;-71
2022/04/13 07:31:35;;;;;;;19.30;13.48;;;15.70;99.90;;;;;;5109373;28;20043;-70
2022/04/13 07:34:02;;;;;;;19.73;14.02;;;15.90;99.90;;;;;;5109395;28;20043;-71
2022/04/13 07:36:29;;;;;;;24.27;13.43;;;16.00;99.90;;;;;;5095131;28;20389;-71
2022/04/13 07:38:54;;;;;;;22.30;12.88;;;16.30;99.90;;;;;;5088911;28;20044;-71
2022/04/13 07:41:20;;;;;;;20.58;12.77;;;17.00;99.90;;;;;;5089009;28;20457;-71
2022/04/13 07:43:47;;;;;;;22.00;12.60;;;16.70;99.90;;;;;;5106031;28;20481;-70
2022/04/13 07:46:13;;;;;;;21.35;12.65;;;16.80;99.90;;;;;;5055092;28;20454;-72
2022/04/13 07:48:38;;;;;;;19.02;12.35;;;16.70;99.90;;;;;;5070487;28;20123;-72
2022/04/13 07:51:04;;;;;;;21.42;12.25;;;17.20;99.90;;;;;;5088828;28;20040;-73
2022/04/13 07:53:30;;;;;;;17.45;11.73;;;16.70;99.90;;;;;;5088718;28;20158;-70
2022/04/13 07:55:56;;;;;;;23.05;12.57;;;17.30;99.90;;;;;;5102628;28;20044;-71
2022/04/13 07:58:22;;;;;;;21.17;13.27;;;15.80;99.90;;;;;;5104387;28;20044;-71
2022/04/13 08:00:48;;;;;;;19.33;12.00;;;16.40;99.90;;;;;;5087691;28;20109;-72
2022/04/13 08:03:15;;;;;;;21.58;12.15;;;16.70;99.90;;;;;;5089798;28;20056;-71
2022/04/13 08:05:41;;;;;;;18.98;11.30;;;16.40;99.90;;;;;;5072584;28;20601;-71
2022/04/13 08:08:07;;;;;;;18.50;11.77;;;16.40;99.90;;;;;;5090750;28;20040;-73
2022/04/13 08:10:32;;;;;;;17.23;11.88;;;16.40;99.90;;;;;;5090581;28;20040;-72
2022/04/13 08:12:58;;;;;;;19.77;12.40;;;16.40;99.90;;;;;;5088987;28;20043;-71
2022/04/13 08:15:24;;;;;;;18.52;12.23;;;16.30;99.90;;;;;;5086716;28;20051;-71
2022/04/13 08:17:50;;;;;;;16.13;11.35;;;16.40;99.90;;;;;;5088667;28;20082;-71
2022/04/13 08:20:15;;;;;;;21.83;13.13;;;16.40;99.90;;;;;;5088397;28;20051;-71
2022/04/13 08:22:42;;;;;;;20.63;12.75;;;16.50;99.90;;;;;;5090359;28;20093;-72
2022/04/13 08:25:09;;;;;;;23.02;12.25;;;16.90;99.90;;;;;;5103543;28;20059;-71
2022/04/13 08:27:35;;;;;;;20.25;11.52;;;16.90;99.90;;;;;;5104501;28;20101;-72
2022/04/13 08:30:00;;;;;;;20.55;11.40;;;18.10;99.90;;;;;;5086856;28;20440;-71
2022/04/13 08:32:26;;;;;;;20.67;11.88;;;17.50;99.90;;;;;;5069761;28;20040;-71
2022/04/13 08:34:52;;;;;;;19.95;11.80;;;17.60;99.90;;;;;;5088302;28;20040;-71
2022/04/13 08:37:22;;;;;;;17.63;11.20;;;17.90;99.90;;;;;;5086922;28;20048;-69
2022/04/13 08:39:48;;;;;;;18.23;11.27;;;18.00;99.90;;;;;;5089914;28;20503;-70
2022/04/13 08:42:29;;;;;;;16.00;10.45;;;18.00;99.90;;;;;;5088361;28;20044;-71
2022/04/13 08:44:58;;;;;;;18.77;10.80;;;18.20;99.90;;;;;;5069844;28;20079;-70
2022/04/13 08:47:24;;;;;;;16.15;10.38;;;18.50;99.90;;;;;;5090291;28;20172;-69
2022/04/13 08:49:51;;;;;;;17.27;9.48;;;18.70;99.90;;;;;;5087072;28;20087;-71
2022/04/13 08:52:28;;;;;;;16.30;9.73;;;19.00;99.90;;;;;;5069339;28;20089;-71
2022/04/13 08:55:14;;;;;;;15.88;9.77;;;19.00;99.90;;;;;;5086863;28;20492;-71
2022/04/13 08:57:48;;;;;;;19.52;9.98;;;19.20;99.90;;;;;;5087200;28;20062;-72
2022/04/13 09:00:16;;;;;;;16.98;9.70;;;19.60;99.90;;;;;;5086696;28;20048;-70
2022/04/13 09:02:58;;;;;;;16.17;9.55;;;19.60;99.90;;;;;;5069486;28;20032;-70
2022/04/13 09:05:27;;;;;;;15.32;9.57;;;19.70;99.90;;;;;;5087310;28;20515;-70
2022/04/13 09:08:21;;;;;;;13.00;8.63;;;20.20;99.90;;;;;;5069602;28;20040;-70
2022/04/13 09:10:48;;;;;;;14.95;9.30;;;19.70;99.90;;;;;;5087189;28;20154;-71
2022/04/13 09:13:15;;;;;;;13.93;7.97;;;19.80;99.90;;;;;;5086971;28;20119;-70
2022/04/13 09:15:42;;;;;;;14.27;8.45;;;19.70;99.90;;;;;;5068294;28;20052;-70
2022/04/13 09:18:08;;;;;;;15.20;8.35;;;19.80;99.90;;;;;;5088562;28;20044;-70
2022/04/13 09:20:34;;;;;;;12.50;7.90;;;19.90;99.90;;;;;;5087247;28;20055;-71
2022/04/13 09:23:01;;;;;;;14.57;7.25;;;20.10;99.90;;;;;;5087784;28;20126;-70
2022/04/13 09:25:29;;;;;;;12.63;6.53;;;21.00;99.90;;;;;;5068967;28;20453;-70
2022/04/13 09:27:56;;;;;;;11.57;6.25;;;22.60;99.90;;;;;;5087763;28;20036;-70
2022/04/13 09:30:22;;;;;;;12.80;6.68;;;24.20;99.90;;;;;;5070628;28;20044;-70
2022/04/13 09:32:50;;;;;;;12.52;6.55;;;26.00;99.90;;;;;;5086780;28;20097;-70
2022/04/13 09:35:16;;;;;;;10.77;5.45;;;28.00;97.80;;;;;;5070864;28;20561;-70
2022/04/13 09:37:42;;;;;;;11.30;5.57;;;29.70;94.60;;;;;;5070297;28;20044;-71
2022/04/13 09:40:09;;;;;;;9.38;4.35;;;31.10;92.70;;;;;;5086588;28;20471;-70
2022/04/13 09:42:36;;;;;;;9.65;5.10;;;32.60;90.40;;;;;;5087556;28;20044;-68
2022/04/13 09:45:02;;;;;;;12.60;5.15;;;33.90;83.70;;;;;;5089344;28;20048;-68
2022/04/13 09:47:33;;;;;;;10.55;4.57;;;34.80;78.10;;;;;;5091066;28;20090;-68
2022/04/13 09:49:59;;;;;;;8.98;4.47;;;35.80;71.40;;;;;;5091591;28;20040;-69
2022/04/13 09:52:37;;;;;;;8.18;4.22;;;35.70;65.90;;;;;;5091893;28;20055;-71
2022/04/13 09:55:07;;;;;;;9.93;4.00;;;35.50;65.80;;;;;;5090224;28;20400;-71
2022/04/13 09:57:33;;;;;;;8.15;4.05;;;35.90;65.40;;;;;;5072951;28;20109;-70
2022/04/13 10:00:01;;;;;;;13.57;4.55;;;36.50;63.40;;;;;;5090012;28;20036;-69
2022/04/13 10:02:35;;;;;;;12.25;4.20;;;37.10;61.30;;;;;;5090358;28;20035;-69
2022/04/13 10:05:02;;;;;;;8.07;4.10;;;37.70;60.10;;;;;;5075640;28;20104;-69
2022/04/13 10:07:28;;;;;;;7.60;3.90;;;37.90;57.90;;;;;;5094237;28;20296;-69
2022/04/13 10:09:54;;;;;;;7.85;3.40;;;38.30;57.60;;;;;;5092806;28;20106;-68
2022/04/13 10:12:19;;;;;;;8.32;4.05;;;38.70;55.90;;;;;;5090795;28;20047;-71
2022/04/13 10:14:46;;;;;;;7.35;3.35;;;39.50;56.00;;;;;;5071324;28;20052;-70
2022/04/13 10:17:13;;;;;;;8.25;3.92;;;39.50;53.50;;;;;;5093256;28;20055;-70
2022/04/13 10:19:39;;;;;;;6.15;3.30;;;39.60;52.60;;;;;;5090681;28;20372;-70
2022/04/13 10:22:06;;;;;;;7.75;3.42;;;39.40;51.00;;;;;;5074176;28;20608;-70
2022/04/13 10:24:39;;;;;;;8.32;3.53;;;38.90;50.90;;;;;;5090195;28;20438;-71
2022/04/13 10:27:12;;;;;;;7.47;3.58;;;38.90;51.70;;;;;;5072315;28;20063;-70
2022/04/13 10:29:40;;;;;;;7.20;3.55;;;39.10;51.10;;;;;;5071518;28;20040;-70
2022/04/13 10:32:15;;;;;;;8.30;3.83;;;38.80;50.50;;;;;;5098956;28;20054;-72
2022/04/13 10:34:42;;;;;;;6.60;3.30;;;37.50;50.70;;;;;;5105488;28;20036;-70
2022/04/13 10:37:10;;;;;;;8.80;3.40;;;36.30;50.10;;;;;;5071164;28;20131;-70
2022/04/13 10:39:36;;;;;;;8.43;3.28;;;35.70;50.80;;;;;;5090402;28;20381;-71
2022/04/13 10:42:03;;;;;;;5.30;2.90;;;35.50;51.60;;;;;;5090034;28;20056;-71
2022/04/13 10:44:34;;;;;;;6.43;3.40;;;35.90;51.10;;;;;;5088577;28;20514;-71
2022/04/13 10:47:05;;;;;;;6.38;2.95;;;35.40;50.90;;;;;;5090688;28;20046;-71
2022/04/13 10:49:40;;;;;;;6.97;3.15;;;34.90;51.40;;;;;;5090546;28;20130;-70
2022/04/13 10:52:15;;;;;;;7.32;3.17;;;34.20;51.10;;;;;;5089676;28;20071;-73
2022/04/13 10:54:48;;;;;;;6.13;3.03;;;32.90;51.80;;;;;;5088994;28;20096;-72
2022/04/13 10:57:16;;;;;;;5.07;2.95;;;32.40;52.60;;;;;;5071060;28;20784;-72
2022/04/13 10:59:50;;;;;;;6.68;3.38;;;33.10;53.40;;;;;;5103710;28;20322;-73
2022/04/13 11:02:33;;;;;;;6.40;3.37;;;34.80;52.60;;;;;;5090165;28;20043;-72
2022/04/13 11:04:59;;;;;;;8.57;3.28;;;36.50;52.10;;;;;;5104131;28;20037;-71
2022/04/13 11:07:26;;;;;;;7.82;3.20;;;37.80;51.10;;;;;;5055266;28;20084;-71
2022/04/13 11:09:56;;;;;;;7.47;3.35;;;37.60;49.80;;;;;;5089378;28;20047;-71
2022/04/13 11:12:23;;;;;;;6.40;3.30;;;36.50;49.60;;;;;;5104500;28;20568;-71
2022/04/13 11:14:51;;;;;;;6.47;3.33;;;35.70;49.90;;;;;;5088547;28;20404;-71
2022/04/13 11:17:16;;;;;;;7.93;3.80;;;34.80;50.40;;;;;;5107090;28;20051;-71
2022/04/13 11:19:43;;;;;;;10.20;3.90;;;33.40;51.40;;;;;;5106453;28;20435;-72
2022/04/13 11:22:11;;;;;;;7.63;3.47;;;32.00;53.10;;;;;;5070810;28;20377;-72
2022/04/13 11:24:48;;;;;;;6.70;3.38;;;30.10;54.50;;;;;;5104842;28;20044;-71
2022/04/13 11:27:15;;;;;;;7.72;3.97;;;28.90;55.50;;;;;;5070393;28;20078;-71
2022/04/13 11:29:56;;;;;;;8.07;4.00;;;27.80;57.70;;;;;;5088441;28;20055;-71
2022/04/13 11:32:26;;;;;;;9.57;4.35;;;27.20;59.20;;;;;;5071444;28;20062;-72
2022/04/13 11:34:51;;;;;;;9.35;4.43;;;26.90;60.50;;;;;;5070303;28;20040;-71
2022/04/13 11:37:19;;;;;;;6.38;4.07;;;26.50;62.10;;;;;;5089699;28;20381;-71
2022/04/13 11:39:49;;;;;;;10.00;4.63;;;26.00;64.70;;;;;;5088126;28;20357;-71
2022/04/13 11:42:20;;;;;;;10.50;4.88;;;25.20;69.40;;;;;;5088749;28;20051;-73
2022/04/13 11:45:00;;;;;;;8.95;4.80;;;24.50;78.20;;;;;;5069299;28;20048;-71
2022/04/13 11:47:37;;;;;;;11.18;4.93;;;23.80;87.40;;;;;;5070246;28;20043;-71
2022/04/13 11:50:17;;;;;;;10.95;4.85;;;23.40;93.30;;;;;;5088969;28;20040;-71
2022/04/13 11:52:52;;;;;;;17.40;5.30;;;22.90;96.80;;;;;;5088611;28;20115;-71
2022/04/13 11:55:18;;;;;;;9.27;4.93;;;22.40;98.80;;;;;;5088541;28;20055;-71
2022/04/13 11:58:08;;;;;;;11.85;4.30;;;22.10;99.90;;;;;;5090374;28;20043;-71
2022/04/13 12:00:45;;;;;;;9.95;4.18;;;21.90;99.70;;;;;;5087543;28;20161;-71
2022/04/13 12:03:34;;;;;;;10.48;3.45;;;21.60;99.90;;;;;;5088913;28;20047;-73
2022/04/13 12:06:01;;;;;;;11.48;3.58;;;21.20;99.90;;;;;;5089138;28;20178;-72
2022/04/13 12:08:38;;;;;;;7.78;2.83;;;21.10;99.90;;;;;;5070416;28;20047;-71
2022/04/13 12:11:06;;;;;;;10.43;2.63;;;21.00;99.90;;;;;;5071192;28;20043;-71
2022/04/13 12:13:48;;;;;;;7.80;2.70;;;21.00;99.90;;;;;;5108786;28;20082;-72
2022/04/13 12:16:34;;;;;;;7.88;2.90;;;20.90;99.90;;;;;;5084966;28;20090;-71
2022/04/13 12:19:10;;;;;;;9.05;3.33;;;20.90;99.90;;;;;;5088157;28;20226;-72
2022/04/13 12:21:38;;;;;;;8.38;3.08;;;20.80;99.90;;;;;;5087627;28;20373;-72
2022/04/13 12:24:05;;;;;;;7.95;3.40;;;20.70;99.90;;;;;;5089989;28;20051;-72
2022/04/13 12:26:39;;;;;;;11.32;3.60;;;20.70;99.90;;;;;;5087386;28;20436;-72
2022/04/13 12:29:16;;;;;;;9.73;3.53;;;20.70;99.90;;;;;;5068362;28;20387;-72
2022/04/13 12:31:52;;;;;;;8.20;3.50;;;20.70;99.90;;;;;;5070094;28;20412;-71
2022/04/13 12:34:19;;;;;;;9.68;3.25;;;20.70;99.90;;;;;;5087854;28;20062;-72